sensor_id;sensor_type;location;lat;lon;timestamp;P1;durP1;ratioP1;P2;durP2;ratioP2
53666;SDS011;39568;51.026;5.468;2024-03-23T00:53:06;14.60;;;3.45;;
53666;SDS011;39568;51.026;5.468;2024-03-23T00:55:32;19.40;;;3.85;;
53666;SDS011;39568;51.026;5.468;2024-03-23T00:57:58;14.88;;;4.10;;
53666;SDS011;39568;51.026;5.468;2024-03-23T01:00:23;11.68;;;3.78;;
53666;SDS011;39568;51.026;5.468;2024-03-23T01:02:50;14.35;;;4.03;;
53666;SDS011;39568;51.026;5.468;2024-03-23T01:05:15;23.95;;;4.63;;
53666;SDS011;39568;51.026;5.468;2024-03-23T01:07:42;16.88;;;3.97;;
53666;SDS011;39568;51.026;5.468;2024-03-23T01:10:09;16.45;;;4.30;;
53666;SDS011;39568;51.026;5.468;2024-03-23T01:12:35;22.05;;;4.57;;
53666;SDS011;39568;51.026;5.468;2024-03-23T01:15:01;20.83;;;3.40;;
53666;SDS011;39568;51.026;5.468;2024-03-23T01:17:27;19.17;;;3.67;;
53666;SDS011;39568;51.026;5.468;2024-03-23T01:19:53;18.13;;;3.72;;
53666;SDS011;39568;51.026;5.468;2024-03-23T01:22:19;10.35;;;3.80;;
53666;SDS011;39568;51.026;5.468;2024-03-23T01:24:45;24.45;;;4.78;;
53666;SDS011;39568;51.026;5.468;2024-03-23T01:27:12;19.45;;;4.05;;
53666;SDS011;39568;51.026;5.468;2024-03-23T01:29:38;15.57;;;3.92;;
53666;SDS011;39568;51.026;5.468;2024-03-23T01:32:05;21.08;;;5.80;;
53666;SDS011;39568;51.026;5.468;2024-03-23T01:34:30;15.90;;;5.18;;
53666;SDS011;39568;51.026;5.468;2024-03-23T01:36:57;15.48;;;4.63;;
53666;SDS011;39568;51.026;5.468;2024-03-23T01:39:22;12.85;;;5.20;;
53666;SDS011;39568;51.026;5.468;2024-03-23T01:41:48;21.60;;;5.78;;
53666;SDS011;39568;51.026;5.468;2024-03-23T01:44:15;28.30;;;6.40;;
53666;SDS011;39568;51.026;5.468;2024-03-23T01:46:42;34.92;;;4.78;;
53666;SDS011;39568;51.026;5.468;2024-03-23T01:49:08;12.02;;;5.00;;
53666;SDS011;39568;51.026;5.468;2024-03-23T01:51:34;19.95;;;4.20;;
53666;SDS011;39568;51.026;5.468;2024-03-23T01:54:00;16.10;;;3.95;;
53666;SDS011;39568;51.026;5.468;2024-03-23T01:56:28;21.38;;;4.13;;
53666;SDS011;39568;51.026;5.468;2024-03-23T01:58:54;16.42;;;5.40;;
53666;SDS011;39568;51.026;5.468;2024-03-23T02:01:21;26.60;;;7.18;;
53666;SDS011;39568;51.026;5.468;2024-03-23T02:03:47;22.70;;;6.97;;
53666;SDS011;39568;51.026;5.468;2024-03-23T02:06:13;30.08;;;7.35;;
53666;SDS011;39568;51.026;5.468;2024-03-23T02:08:39;22.42;;;3.78;;
53666;SDS011;39568;51.026;5.468;2024-03-23T02:11:06;18.67;;;4.63;;
53666;SDS011;39568;51.026;5.468;2024-03-23T02:13:31;9.27;;;3.38;;
53666;SDS011;39568;51.026;5.468;2024-03-23T02:15:58;17.67;;;5.82;;
53666;SDS011;39568;51.026;5.468;2024-03-23T02:18:24;18.48;;;3.90;;
53666;SDS011;39568;51.026;5.468;2024-03-23T02:20:51;11.60;;;3.65;;
53666;SDS011;39568;51.026;5.468;2024-03-23T02:23:18;19.38;;;5.80;;
53666;SDS011;39568;51.026;5.468;2024-03-23T02:25:45;10.60;;;3.83;;
53666;SDS011;39568;51.026;5.468;2024-03-23T02:28:10;19.77;;;5.18;;
53666;SDS011;39568;51.026;5.468;2024-03-23T02:30:37;9.90;;;2.88;;
53666;SDS011;39568;51.026;5.468;2024-03-23T02:33:02;15.32;;;4.47;;
53666;SDS011;39568;51.026;5.468;2024-03-23T02:35:29;19.52;;;4.68;;
53666;SDS011;39568;51.026;5.468;2024-03-23T02:37:54;21.27;;;4.13;;
53666;SDS011;39568;51.026;5.468;2024-03-23T02:40:23;34.65;;;7.95;;
53666;SDS011;39568;51.026;5.468;2024-03-23T02:42:49;16.50;;;6.75;;
53666;SDS011;39568;51.026;5.468;2024-03-23T02:45:15;20.90;;;4.75;;
53666;SDS011;39568;51.026;5.468;2024-03-23T02:47:41;11.90;;;4.60;;
53666;SDS011;39568;51.026;5.468;2024-03-23T02:50:08;16.35;;;6.15;;
53666;SDS011;39568;51.026;5.468;2024-03-23T02:52:34;36.20;;;7.18;;
53666;SDS011;39568;51.026;5.468;2024-03-23T02:55:00;25.50;;;5.72;;
53666;SDS011;39568;51.026;5.468;2024-03-23T02:57:28;26.83;;;6.43;;
53666;SDS011;39568;51.026;5.468;2024-03-23T02:59:54;25.00;;;7.60;;
53666;SDS011;39568;51.026;5.468;2024-03-23T03:02:20;26.25;;;7.50;;
53666;SDS011;39568;51.026;5.468;2024-03-23T03:04:47;21.73;;;6.43;;
53666;SDS011;39568;51.026;5.468;2024-03-23T03:07:12;33.10;;;8.65;;
53666;SDS011;39568;51.026;5.468;2024-03-23T03:09:39;26.42;;;6.15;;
53666;SDS011;39568;51.026;5.468;2024-03-23T03:12:04;30.55;;;6.07;;
53666;SDS011;39568;51.026;5.468;2024-03-23T03:14:32;25.17;;;8.23;;
53666;SDS011;39568;51.026;5.468;2024-03-23T03:16:58;20.88;;;5.53;;
53666;SDS011;39568;51.026;5.468;2024-03-23T03:19:24;31.90;;;6.78;;
53666;SDS011;39568;51.026;5.468;2024-03-23T03:21:50;21.63;;;5.70;;
53666;SDS011;39568;51.026;5.468;2024-03-23T03:24:16;27.60;;;6.70;;
53666;SDS011;39568;51.026;5.468;2024-03-23T03:26:42;23.98;;;5.93;;
53666;SDS011;39568;51.026;5.468;2024-03-23T03:29:08;20.60;;;6.03;;
53666;SDS011;39568;51.026;5.468;2024-03-23T03:31:35;22.67;;;6.60;;
53666;SDS011;39568;51.026;5.468;2024-03-23T03:34:01;27.63;;;5.82;;
53666;SDS011;39568;51.026;5.468;2024-03-23T03:36:27;20.42;;;6.43;;
53666;SDS011;39568;51.026;5.468;2024-03-23T03:38:54;35.60;;;7.55;;
53666;SDS011;39568;51.026;5.468;2024-03-23T03:41:19;17.70;;;5.22;;
53666;SDS011;39568;51.026;5.468;2024-03-23T03:43:46;17.98;;;4.90;;
53666;SDS011;39568;51.026;5.468;2024-03-23T03:46:11;32.78;;;5.63;;
53666;SDS011;39568;51.026;5.468;2024-03-23T03:48:39;33.78;;;6.43;;
53666;SDS011;39568;51.026;5.468;2024-03-23T03:51:04;20.73;;;5.60;;
53666;SDS011;39568;51.026;5.468;2024-03-23T03:53:31;27.13;;;5.82;;
53666;SDS011;39568;51.026;5.468;2024-03-23T03:55:56;28.58;;;6.03;;
53666;SDS011;39568;51.026;5.468;2024-03-23T03:58:23;13.23;;;3.83;;
53666;SDS011;39568;51.026;5.468;2024-03-23T04:00:48;38.15;;;6.75;;
53666;SDS011;39568;51.026;5.468;2024-03-23T04:03:15;16.33;;;5.60;;
53666;SDS011;39568;51.026;5.468;2024-03-23T04:05:42;10.63;;;3.53;;
53666;SDS011;39568;51.026;5.468;2024-03-23T04:08:08;19.80;;;5.97;;
53666;SDS011;39568;51.026;5.468;2024-03-23T04:10:34;24.52;;;4.28;;
53666;SDS011;39568;51.026;5.468;2024-03-23T04:13:01;24.88;;;7.43;;
53666;SDS011;39568;51.026;5.468;2024-03-23T04:15:26;19.65;;;5.35;;
53666;SDS011;39568;51.026;5.468;2024-03-23T04:17:53;16.98;;;5.13;;
53666;SDS011;39568;51.026;5.468;2024-03-23T04:20:18;28.95;;;6.47;;
53666;SDS011;39568;51.026;5.468;2024-03-23T04:22:46;21.17;;;5.45;;
53666;SDS011;39568;51.026;5.468;2024-03-23T04:25:11;20.33;;;6.30;;
53666;SDS011;39568;51.026;5.468;2024-03-23T04:27:38;23.75;;;6.28;;
53666;SDS011;39568;51.026;5.468;2024-03-23T04:30:04;16.55;;;5.78;;
53666;SDS011;39568;51.026;5.468;2024-03-23T04:32:35;25.63;;;5.40;;
53666;SDS011;39568;51.026;5.468;2024-03-23T04:35:00;29.92;;;6.03;;
53666;SDS011;39568;51.026;5.468;2024-03-23T04:37:26;24.15;;;6.38;;
53666;SDS011;39568;51.026;5.468;2024-03-23T04:39:55;24.40;;;6.00;;
53666;SDS011;39568;51.026;5.468;2024-03-23T04:42:21;39.60;;;6.80;;
53666;SDS011;39568;51.026;5.468;2024-03-23T04:44:48;18.17;;;5.43;;
53666;SDS011;39568;51.026;5.468;2024-03-23T04:47:14;18.20;;;6.72;;
53666;SDS011;39568;51.026;5.468;2024-03-23T04:49:41;18.63;;;6.18;;
53666;SDS011;39568;51.026;5.468;2024-03-23T04:52:08;34.08;;;7.55;;
53666;SDS011;39568;51.026;5.468;2024-03-23T04:54:34;20.70;;;5.85;;
53666;SDS011;39568;51.026;5.468;2024-03-23T04:57:02;23.40;;;5.85;;
53666;SDS011;39568;51.026;5.468;2024-03-23T04:59:28;29.75;;;7.35;;
53666;SDS011;39568;51.026;5.468;2024-03-23T05:01:54;24.52;;;5.90;;
53666;SDS011;39568;51.026;5.468;2024-03-23T05:04:20;29.20;;;6.95;;
53666;SDS011;39568;51.026;5.468;2024-03-23T05:06:46;36.33;;;7.00;;
53666;SDS011;39568;51.026;5.468;2024-03-23T05:09:11;41.55;;;8.38;;
53666;SDS011;39568;51.026;5.468;2024-03-23T05:11:38;34.08;;;9.18;;
53666;SDS011;39568;51.026;5.468;2024-03-23T05:14:05;28.48;;;7.07;;
53666;SDS011;39568;51.026;5.468;2024-03-23T05:16:31;24.55;;;6.78;;
53666;SDS011;39568;51.026;5.468;2024-03-23T05:18:57;36.83;;;9.35;;
53666;SDS011;39568;51.026;5.468;2024-03-23T05:21:23;29.50;;;8.77;;
53666;SDS011;39568;51.026;5.468;2024-03-23T05:23:49;33.67;;;7.75;;
53666;SDS011;39568;51.026;5.468;2024-03-23T05:26:16;29.63;;;8.57;;
53666;SDS011;39568;51.026;5.468;2024-03-23T05:28:41;37.65;;;9.02;;
53666;SDS011;39568;51.026;5.468;2024-03-23T05:31:10;32.40;;;9.00;;
53666;SDS011;39568;51.026;5.468;2024-03-23T05:33:35;38.30;;;10.30;;
53666;SDS011;39568;51.026;5.468;2024-03-23T05:36:03;58.75;;;11.50;;
53666;SDS011;39568;51.026;5.468;2024-03-23T05:38:29;40.80;;;9.95;;
53666;SDS011;39568;51.026;5.468;2024-03-23T05:40:55;27.50;;;10.32;;
53666;SDS011;39568;51.026;5.468;2024-03-23T05:43:21;18.35;;;7.65;;
53666;SDS011;39568;51.026;5.468;2024-03-23T05:45:53;44.33;;;11.07;;
53666;SDS011;39568;51.026;5.468;2024-03-23T05:48:20;36.47;;;10.00;;
53666;SDS011;39568;51.026;5.468;2024-03-23T05:50:46;29.08;;;8.93;;
53666;SDS011;39568;51.026;5.468;2024-03-23T05:53:12;35.40;;;12.25;;
53666;SDS011;39568;51.026;5.468;2024-03-23T05:55:39;33.45;;;11.05;;
53666;SDS011;39568;51.026;5.468;2024-03-23T05:58:04;31.50;;;10.75;;
53666;SDS011;39568;51.026;5.468;2024-03-23T06:00:30;37.20;;;10.68;;
53666;SDS011;39568;51.026;5.468;2024-03-23T06:02:56;20.35;;;6.18;;
53666;SDS011;39568;51.026;5.468;2024-03-23T06:05:24;27.80;;;11.43;;
53666;SDS011;39568;51.026;5.468;2024-03-23T06:07:49;36.90;;;13.95;;
53666;SDS011;39568;51.026;5.468;2024-03-23T06:10:16;9.43;;;6.55;;
53666;SDS011;39568;51.026;5.468;2024-03-23T06:12:41;35.53;;;12.05;;
53666;SDS011;39568;51.026;5.468;2024-03-23T06:15:08;27.90;;;11.60;;
53666;SDS011;39568;51.026;5.468;2024-03-23T06:17:35;24.65;;;10.00;;
53666;SDS011;39568;51.026;5.468;2024-03-23T06:20:02;25.48;;;9.65;;
53666;SDS011;39568;51.026;5.468;2024-03-23T06:22:29;24.38;;;9.15;;
53666;SDS011;39568;51.026;5.468;2024-03-23T06:24:55;31.38;;;11.65;;
53666;SDS011;39568;51.026;5.468;2024-03-23T06:27:20;28.92;;;10.65;;
53666;SDS011;39568;51.026;5.468;2024-03-23T06:29:47;23.05;;;10.43;;
53666;SDS011;39568;51.026;5.468;2024-03-23T06:32:12;29.80;;;10.43;;
53666;SDS011;39568;51.026;5.468;2024-03-23T06:34:40;31.25;;;11.00;;
53666;SDS011;39568;51.026;5.468;2024-03-23T06:37:06;22.63;;;9.40;;
53666;SDS011;39568;51.026;5.468;2024-03-23T06:39:36;24.08;;;9.52;;
53666;SDS011;39568;51.026;5.468;2024-03-23T06:42:02;25.45;;;9.13;;
53666;SDS011;39568;51.026;5.468;2024-03-23T06:44:28;27.40;;;9.30;;
53666;SDS011;39568;51.026;5.468;2024-03-23T06:46:54;24.42;;;9.70;;
53666;SDS011;39568;51.026;5.468;2024-03-23T06:49:20;19.92;;;8.73;;
53666;SDS011;39568;51.026;5.468;2024-03-23T06:51:47;15.77;;;9.13;;
53666;SDS011;39568;51.026;5.468;2024-03-23T06:54:12;25.15;;;9.77;;
53666;SDS011;39568;51.026;5.468;2024-03-23T06:56:40;22.98;;;8.93;;
53666;SDS011;39568;51.026;5.468;2024-03-23T06:59:06;27.10;;;8.07;;
53666;SDS011;39568;51.026;5.468;2024-03-23T07:01:32;38.92;;;9.93;;
53666;SDS011;39568;51.026;5.468;2024-03-23T07:03:58;28.90;;;10.75;;
53666;SDS011;39568;51.026;5.468;2024-03-23T07:06:24;32.58;;;11.43;;
53666;SDS011;39568;51.026;5.468;2024-03-23T07:08:50;37.47;;;10.45;;
53666;SDS011;39568;51.026;5.468;2024-03-23T07:11:18;29.52;;;10.40;;
53666;SDS011;39568;51.026;5.468;2024-03-23T07:13:45;41.20;;;9.95;;
53666;SDS011;39568;51.026;5.468;2024-03-23T07:16:12;25.00;;;6.68;;
53666;SDS011;39568;51.026;5.468;2024-03-23T07:18:38;31.20;;;9.32;;
53666;SDS011;39568;51.026;5.468;2024-03-23T07:21:04;23.17;;;8.30;;
53666;SDS011;39568;51.026;5.468;2024-03-23T07:23:31;42.97;;;9.35;;
53666;SDS011;39568;51.026;5.468;2024-03-23T07:25:58;38.08;;;9.48;;
53666;SDS011;39568;51.026;5.468;2024-03-23T07:28:24;25.40;;;6.85;;
53666;SDS011;39568;51.026;5.468;2024-03-23T07:31:02;27.02;;;6.50;;
53666;SDS011;39568;51.026;5.468;2024-03-23T07:33:27;20.15;;;6.75;;
53666;SDS011;39568;51.026;5.468;2024-03-23T07:35:54;26.38;;;4.13;;
53666;SDS011;39568;51.026;5.468;2024-03-23T07:38:19;21.52;;;5.80;;
53666;SDS011;39568;51.026;5.468;2024-03-23T07:40:46;13.38;;;4.28;;
53666;SDS011;39568;51.026;5.468;2024-03-23T07:43:11;15.55;;;5.40;;
53666;SDS011;39568;51.026;5.468;2024-03-23T07:45:38;15.40;;;5.20;;
53666;SDS011;39568;51.026;5.468;2024-03-23T07:48:05;22.02;;;5.25;;
53666;SDS011;39568;51.026;5.468;2024-03-23T07:50:31;12.48;;;3.60;;
53666;SDS011;39568;51.026;5.468;2024-03-23T07:52:57;24.30;;;5.95;;
53666;SDS011;39568;51.026;5.468;2024-03-23T07:55:23;20.58;;;4.88;;
53666;SDS011;39568;51.026;5.468;2024-03-23T07:57:50;22.60;;;6.40;;
53666;SDS011;39568;51.026;5.468;2024-03-23T08:00:18;11.13;;;4.50;;
53666;SDS011;39568;51.026;5.468;2024-03-23T08:02:44;23.55;;;7.22;;
53666;SDS011;39568;51.026;5.468;2024-03-23T08:05:12;16.15;;;4.60;;
53666;SDS011;39568;51.026;5.468;2024-03-23T08:07:37;20.42;;;6.18;;
53666;SDS011;39568;51.026;5.468;2024-03-23T08:10:04;23.52;;;4.03;;
53666;SDS011;39568;51.026;5.468;2024-03-23T08:12:29;18.65;;;4.95;;
53666;SDS011;39568;51.026;5.468;2024-03-23T08:14:56;16.27;;;3.03;;
53666;SDS011;39568;51.026;5.468;2024-03-23T08:17:21;16.98;;;4.47;;
53666;SDS011;39568;51.026;5.468;2024-03-23T08:19:48;9.75;;;3.47;;
53666;SDS011;39568;51.026;5.468;2024-03-23T08:22:14;18.48;;;5.90;;
53666;SDS011;39568;51.026;5.468;2024-03-23T08:24:41;18.15;;;4.20;;
53666;SDS011;39568;51.026;5.468;2024-03-23T08:27:06;17.60;;;3.75;;
53666;SDS011;39568;51.026;5.468;2024-03-23T08:29:33;14.15;;;3.53;;
53666;SDS011;39568;51.026;5.468;2024-03-23T08:31:58;11.82;;;2.70;;
53666;SDS011;39568;51.026;5.468;2024-03-23T08:34:26;16.40;;;3.47;;
53666;SDS011;39568;51.026;5.468;2024-03-23T08:36:51;18.10;;;3.33;;
53666;SDS011;39568;51.026;5.468;2024-03-23T08:39:19;14.73;;;2.38;;
53666;SDS011;39568;51.026;5.468;2024-03-23T08:41:44;13.07;;;2.92;;
53666;SDS011;39568;51.026;5.468;2024-03-23T08:44:11;12.27;;;3.78;;
53666;SDS011;39568;51.026;5.468;2024-03-23T08:46:36;12.20;;;3.78;;
53666;SDS011;39568;51.026;5.468;2024-03-23T08:49:03;9.52;;;2.55;;
53666;SDS011;39568;51.026;5.468;2024-03-23T08:51:29;11.85;;;2.47;;
53666;SDS011;39568;51.026;5.468;2024-03-23T08:53:55;17.20;;;2.78;;
53666;SDS011;39568;51.026;5.468;2024-03-23T08:56:22;8.60;;;2.70;;
53666;SDS011;39568;51.026;5.468;2024-03-23T08:58:48;11.73;;;1.95;;
53666;SDS011;39568;51.026;5.468;2024-03-23T09:01:14;6.95;;;2.17;;
53666;SDS011;39568;51.026;5.468;2024-03-23T09:03:40;14.50;;;2.38;;
53666;SDS011;39568;51.026;5.468;2024-03-23T09:06:06;9.82;;;2.13;;
53666;SDS011;39568;51.026;5.468;2024-03-23T09:08:33;9.13;;;2.30;;
53666;SDS011;39568;51.026;5.468;2024-03-23T09:11:03;8.95;;;2.50;;
53666;SDS011;39568;51.026;5.468;2024-03-23T09:13:32;12.38;;;3.28;;
53666;SDS011;39568;51.026;5.468;2024-03-23T09:15:57;9.00;;;2.10;;
53666;SDS011;39568;51.026;5.468;2024-03-23T09:18:24;16.27;;;2.38;;
53666;SDS011;39568;51.026;5.468;2024-03-23T09:20:49;6.55;;;1.35;;
53666;SDS011;39568;51.026;5.468;2024-03-23T09:23:16;7.50;;;2.00;;
53666;SDS011;39568;51.026;5.468;2024-03-23T09:25:41;8.85;;;2.22;;
53666;SDS011;39568;51.026;5.468;2024-03-23T09:28:08;7.22;;;2.13;;
53666;SDS011;39568;51.026;5.468;2024-03-23T09:30:35;8.45;;;1.98;;
53666;SDS011;39568;51.026;5.468;2024-03-23T09:33:07;17.75;;;3.55;;
53666;SDS011;39568;51.026;5.468;2024-03-23T09:35:35;4.10;;;1.90;;
53666;SDS011;39568;51.026;5.468;2024-03-23T09:38:02;11.85;;;2.50;;
53666;SDS011;39568;51.026;5.468;2024-03-23T09:40:27;14.68;;;2.70;;
53666;SDS011;39568;51.026;5.468;2024-03-23T09:42:54;7.32;;;2.65;;
53666;SDS011;39568;51.026;5.468;2024-03-23T09:45:20;8.10;;;2.50;;
53666;SDS011;39568;51.026;5.468;2024-03-23T09:47:49;4.13;;;1.90;;
53666;SDS011;39568;51.026;5.468;2024-03-23T09:50:15;4.05;;;0.95;;
53666;SDS011;39568;51.026;5.468;2024-03-23T09:52:42;4.55;;;1.33;;
53666;SDS011;39568;51.026;5.468;2024-03-23T09:55:07;6.60;;;1.58;;
53666;SDS011;39568;51.026;5.468;2024-03-23T09:57:34;4.55;;;1.52;;
53666;SDS011;39568;51.026;5.468;2024-03-23T09:59:59;9.95;;;2.80;;
53666;SDS011;39568;51.026;5.468;2024-03-23T10:02:26;11.68;;;2.05;;
53666;SDS011;39568;51.026;5.468;2024-03-23T10:04:54;10.63;;;3.10;;
53666;SDS011;39568;51.026;5.468;2024-03-23T10:07:21;5.28;;;1.77;;
53666;SDS011;39568;51.026;5.468;2024-03-23T10:09:47;4.68;;;1.55;;
53666;SDS011;39568;51.026;5.468;2024-03-23T10:12:17;3.38;;;1.77;;
53666;SDS011;39568;51.026;5.468;2024-03-23T10:14:43;4.82;;;2.00;;
53666;SDS011;39568;51.026;5.468;2024-03-23T10:17:13;8.00;;;1.88;;
53666;SDS011;39568;51.026;5.468;2024-03-23T10:19:39;7.65;;;0.75;;
53666;SDS011;39568;51.026;5.468;2024-03-23T10:22:08;4.47;;;1.48;;
53666;SDS011;39568;51.026;5.468;2024-03-23T10:24:33;5.10;;;1.95;;
53666;SDS011;39568;51.026;5.468;2024-03-23T10:27:00;13.18;;;1.55;;
53666;SDS011;39568;51.026;5.468;2024-03-23T10:29:25;2.50;;;1.33;;
53666;SDS011;39568;51.026;5.468;2024-03-23T10:31:52;2.45;;;0.88;;
53666;SDS011;39568;51.026;5.468;2024-03-23T10:34:24;4.32;;;2.53;;
53666;SDS011;39568;51.026;5.468;2024-03-23T10:36:51;11.65;;;3.00;;
53666;SDS011;39568;51.026;5.468;2024-03-23T10:39:19;1.92;;;1.45;;
53666;SDS011;39568;51.026;5.468;2024-03-23T10:41:47;7.57;;;2.13;;
53666;SDS011;39568;51.026;5.468;2024-03-23T10:44:14;7.95;;;2.20;;
53666;SDS011;39568;51.026;5.468;2024-03-23T10:46:41;8.60;;;1.95;;
53666;SDS011;39568;51.026;5.468;2024-03-23T10:49:06;6.53;;;2.85;;
53666;SDS011;39568;51.026;5.468;2024-03-23T10:51:33;3.25;;;1.40;;
53666;SDS011;39568;51.026;5.468;2024-03-23T10:53:58;2.28;;;1.20;;
53666;SDS011;39568;51.026;5.468;2024-03-23T10:56:27;6.50;;;1.08;;
53666;SDS011;39568;51.026;5.468;2024-03-23T10:58:54;0.75;;;0.73;;
53666;SDS011;39568;51.026;5.468;2024-03-23T11:01:21;1.88;;;0.60;;
53666;SDS011;39568;51.026;5.468;2024-03-23T11:03:46;1.17;;;0.68;;
53666;SDS011;39568;51.026;5.468;2024-03-23T11:06:34;2.67;;;0.40;;
53666;SDS011;39568;51.026;5.468;2024-03-23T11:08:59;4.35;;;1.42;;
53666;SDS011;39568;51.026;5.468;2024-03-23T11:11:27;3.28;;;0.60;;
53666;SDS011;39568;51.026;5.468;2024-03-23T11:13:53;0.40;;;0.40;;
53666;SDS011;39568;51.026;5.468;2024-03-23T11:16:22;0.98;;;0.90;;
53666;SDS011;39568;51.026;5.468;2024-03-23T11:18:48;2.65;;;0.80;;
53666;SDS011;39568;51.026;5.468;2024-03-23T11:23:54;1.45;;;0.65;;
53666;SDS011;39568;51.026;5.468;2024-03-23T11:26:21;1.98;;;1.00;;
53666;SDS011;39568;51.026;5.468;2024-03-23T11:28:47;9.70;;;0.75;;
53666;SDS011;39568;51.026;5.468;2024-03-23T11:31:14;0.57;;;0.57;;
53666;SDS011;39568;51.026;5.468;2024-03-23T11:33:40;0.80;;;0.80;;
53666;SDS011;39568;51.026;5.468;2024-03-23T11:36:06;4.15;;;1.80;;
53666;SDS011;39568;51.026;5.468;2024-03-23T11:38:34;1.58;;;1.48;;
53666;SDS011;39568;51.026;5.468;2024-03-23T11:41:02;5.60;;;1.38;;
53666;SDS011;39568;51.026;5.468;2024-03-23T11:43:28;0.93;;;0.93;;
53666;SDS011;39568;51.026;5.468;2024-03-23T11:45:55;5.00;;;1.40;;
53666;SDS011;39568;51.026;5.468;2024-03-23T11:48:22;0.75;;;0.75;;
53666;SDS011;39568;51.026;5.468;2024-03-23T11:50:49;4.75;;;1.65;;
53666;SDS011;39568;51.026;5.468;2024-03-23T11:53:16;3.08;;;0.77;;
53666;SDS011;39568;51.026;5.468;2024-03-23T11:55:43;3.60;;;1.25;;
53666;SDS011;39568;51.026;5.468;2024-03-23T11:58:09;3.83;;;1.63;;
53666;SDS011;39568;51.026;5.468;2024-03-23T12:00:36;8.90;;;1.60;;
53666;SDS011;39568;51.026;5.468;2024-03-23T12:03:04;11.00;;;2.92;;
53666;SDS011;39568;51.026;5.468;2024-03-23T12:05:30;10.98;;;2.72;;
53666;SDS011;39568;51.026;5.468;2024-03-23T12:10:37;15.93;;;2.70;;
53666;SDS011;39568;51.026;5.468;2024-03-23T12:13:03;3.88;;;0.98;;
53666;SDS011;39568;51.026;5.468;2024-03-23T12:15:29;3.00;;;1.35;;
53666;SDS011;39568;51.026;5.468;2024-03-23T12:18:07;2.65;;;0.47;;
53666;SDS011;39568;51.026;5.468;2024-03-23T12:20:33;3.58;;;0.57;;
53666;SDS011;39568;51.026;5.468;2024-03-23T12:23:04;5.45;;;0.57;;
53666;SDS011;39568;51.026;5.468;2024-03-23T12:25:31;0.82;;;0.70;;
53666;SDS011;39568;51.026;5.468;2024-03-23T12:27:58;3.65;;;1.00;;
53666;SDS011;39568;51.026;5.468;2024-03-23T12:30:24;3.38;;;1.40;;
53666;SDS011;39568;51.026;5.468;2024-03-23T12:32:50;1.92;;;1.10;;
53666;SDS011;39568;51.026;5.468;2024-03-23T12:35:17;3.65;;;2.50;;
53666;SDS011;39568;51.026;5.468;2024-03-23T12:37:43;3.25;;;1.42;;
53666;SDS011;39568;51.026;5.468;2024-03-23T12:40:10;3.75;;;0.63;;
53666;SDS011;39568;51.026;5.468;2024-03-23T12:42:35;2.28;;;1.17;;
53666;SDS011;39568;51.026;5.468;2024-03-23T12:45:02;1.02;;;0.82;;
53666;SDS011;39568;51.026;5.468;2024-03-23T12:47:28;2.42;;;0.73;;
53666;SDS011;39568;51.026;5.468;2024-03-23T12:49:56;7.47;;;1.25;;
53666;SDS011;39568;51.026;5.468;2024-03-23T12:52:23;2.72;;;0.93;;
53666;SDS011;39568;51.026;5.468;2024-03-23T12:54:53;4.85;;;1.67;;
53666;SDS011;39568;51.026;5.468;2024-03-23T12:57:18;5.00;;;1.40;;
53666;SDS011;39568;51.026;5.468;2024-03-23T12:59:45;2.15;;;1.20;;
53666;SDS011;39568;51.026;5.468;2024-03-23T13:02:15;4.45;;;1.67;;
53666;SDS011;39568;51.026;5.468;2024-03-23T13:04:42;4.20;;;1.30;;
53666;SDS011;39568;51.026;5.468;2024-03-23T13:07:07;4.20;;;1.55;;
53666;SDS011;39568;51.026;5.468;2024-03-23T13:09:35;3.35;;;1.45;;
53666;SDS011;39568;51.026;5.468;2024-03-23T13:12:00;4.90;;;1.27;;
53666;SDS011;39568;51.026;5.468;2024-03-23T13:14:27;6.05;;;0.57;;
53666;SDS011;39568;51.026;5.468;2024-03-23T13:16:52;2.20;;;0.65;;
53666;SDS011;39568;51.026;5.468;2024-03-23T13:19:19;0.77;;;0.35;;
53666;SDS011;39568;51.026;5.468;2024-03-23T13:21:45;2.58;;;1.45;;
53666;SDS011;39568;51.026;5.468;2024-03-23T13:24:11;1.33;;;0.88;;
53666;SDS011;39568;51.026;5.468;2024-03-23T13:26:38;2.15;;;1.02;;
53666;SDS011;39568;51.026;5.468;2024-03-23T13:29:04;6.70;;;1.83;;
53666;SDS011;39568;51.026;5.468;2024-03-23T13:31:30;1.95;;;1.33;;
53666;SDS011;39568;51.026;5.468;2024-03-23T13:33:56;4.80;;;1.30;;
53666;SDS011;39568;51.026;5.468;2024-03-23T13:36:22;3.13;;;1.25;;
53666;SDS011;39568;51.026;5.468;2024-03-23T13:38:50;5.22;;;1.48;;
53666;SDS011;39568;51.026;5.468;2024-03-23T13:41:16;8.90;;;2.00;;
53666;SDS011;39568;51.026;5.468;2024-03-23T13:43:44;9.35;;;4.78;;
53666;SDS011;39568;51.026;5.468;2024-03-23T13:46:09;1.40;;;1.13;;
53666;SDS011;39568;51.026;5.468;2024-03-23T13:48:36;13.15;;;1.65;;
53666;SDS011;39568;51.026;5.468;2024-03-23T13:51:01;6.78;;;1.95;;
53666;SDS011;39568;51.026;5.468;2024-03-23T13:53:28;7.05;;;2.20;;
53666;SDS011;39568;51.026;5.468;2024-03-23T13:55:54;6.47;;;1.27;;
53666;SDS011;39568;51.026;5.468;2024-03-23T13:58:20;1.52;;;0.88;;
53666;SDS011;39568;51.026;5.468;2024-03-23T14:00:47;5.63;;;1.35;;
53666;SDS011;39568;51.026;5.468;2024-03-23T14:03:14;11.98;;;1.63;;
53666;SDS011;39568;51.026;5.468;2024-03-23T14:05:39;3.88;;;1.40;;
53666;SDS011;39568;51.026;5.468;2024-03-23T14:08:06;1.50;;;1.40;;
53666;SDS011;39568;51.026;5.468;2024-03-23T14:10:31;4.82;;;1.40;;
53666;SDS011;39568;51.026;5.468;2024-03-23T14:12:58;6.38;;;1.52;;
53666;SDS011;39568;51.026;5.468;2024-03-23T14:15:25;6.65;;;1.40;;
53666;SDS011;39568;51.026;5.468;2024-03-23T14:17:52;2.92;;;1.23;;
53666;SDS011;39568;51.026;5.468;2024-03-23T14:20:19;4.68;;;1.85;;
53666;SDS011;39568;51.026;5.468;2024-03-23T14:22:46;6.43;;;2.22;;
53666;SDS011;39568;51.026;5.468;2024-03-23T14:25:11;12.27;;;3.42;;
53666;SDS011;39568;51.026;5.468;2024-03-23T14:27:37;1.67;;;1.40;;
53666;SDS011;39568;51.026;5.468;2024-03-23T14:30:03;4.57;;;1.73;;
53666;SDS011;39568;51.026;5.468;2024-03-23T14:32:30;13.88;;;2.15;;
53666;SDS011;39568;51.026;5.468;2024-03-23T14:35:00;3.00;;;1.50;;
53666;SDS011;39568;51.026;5.468;2024-03-23T14:37:26;10.18;;;1.98;;
53666;SDS011;39568;51.026;5.468;2024-03-23T14:39:52;9.27;;;2.45;;
53666;SDS011;39568;51.026;5.468;2024-03-23T14:42:18;2.15;;;0.85;;
53666;SDS011;39568;51.026;5.468;2024-03-23T14:44:44;4.22;;;2.38;;
53666;SDS011;39568;51.026;5.468;2024-03-23T14:47:10;5.50;;;2.75;;
53666;SDS011;39568;51.026;5.468;2024-03-23T14:49:36;12.35;;;2.15;;
53666;SDS011;39568;51.026;5.468;2024-03-23T14:52:04;11.30;;;1.80;;
53666;SDS011;39568;51.026;5.468;2024-03-23T14:54:29;4.53;;;2.45;;
53666;SDS011;39568;51.026;5.468;2024-03-23T14:56:55;4.10;;;1.33;;
53666;SDS011;39568;51.026;5.468;2024-03-23T14:59:23;7.32;;;0.80;;
53666;SDS011;39568;51.026;5.468;2024-03-23T15:01:49;4.13;;;1.55;;
53666;SDS011;39568;51.026;5.468;2024-03-23T15:04:16;2.15;;;0.80;;
53666;SDS011;39568;51.026;5.468;2024-03-23T15:06:42;3.05;;;1.02;;
53666;SDS011;39568;51.026;5.468;2024-03-23T15:09:09;2.50;;;0.57;;
53666;SDS011;39568;51.026;5.468;2024-03-23T15:11:36;5.47;;;0.93;;
53666;SDS011;39568;51.026;5.468;2024-03-23T15:14:02;1.48;;;0.55;;
53666;SDS011;39568;51.026;5.468;2024-03-23T15:16:28;2.90;;;0.98;;
53666;SDS011;39568;51.026;5.468;2024-03-23T15:18:53;5.40;;;1.40;;
53666;SDS011;39568;51.026;5.468;2024-03-23T15:21:20;6.88;;;1.02;;
53666;SDS011;39568;51.026;5.468;2024-03-23T15:23:46;2.63;;;1.10;;
53666;SDS011;39568;51.026;5.468;2024-03-23T15:26:14;3.80;;;1.33;;
53666;SDS011;39568;51.026;5.468;2024-03-23T15:28:41;5.25;;;1.33;;
53666;SDS011;39568;51.026;5.468;2024-03-23T15:31:27;2.25;;;0.80;;